sensor_id;sensor_type;location;lat;lon;timestamp;temperature;humidity
30097;DHT22;16915;51.466;3.610;2023-01-23T00:02:17;2.60;99.90
30097;DHT22;16915;51.466;3.610;2023-01-23T00:04:43;2.60;99.90
30097;DHT22;16915;51.466;3.610;2023-01-23T00:07:09;2.60;99.90
30097;DHT22;16915;51.466;3.610;2023-01-23T00:09:34;2.60;99.90
30097;DHT22;16915;51.466;3.610;2023-01-23T00:12:00;2.60;99.90
30097;DHT22;16915;51.466;3.610;2023-01-23T00:14:26;2.70;99.90
30097;DHT22;16915;51.466;3.610;2023-01-23T00:16:51;2.60;99.90
30097;DHT22;16915;51.466;3.610;2023-01-23T00:19:17;2.70;99.90
30097;DHT22;16915;51.466;3.610;2023-01-23T00:21:43;2.70;99.90
30097;DHT22;16915;51.466;3.610;2023-01-23T00:24:10;2.70;99.90
30097;DHT22;16915;51.466;3.610;2023-01-23T00:26:36;2.60;99.90
30097;DHT22;16915;51.466;3.610;2023-01-23T00:29:03;2.60;99.90
30097;DHT22;16915;51.466;3.610;2023-01-23T00:31:32;2.60;99.90
30097;DHT22;16915;51.466;3.610;2023-01-23T00:34:00;2.60;99.90
30097;DHT22;16915;51.466;3.610;2023-01-23T00:36:35;2.70;99.90
30097;DHT22;16915;51.466;3.610;2023-01-23T00:39:03;2.70;99.90
30097;DHT22;16915;51.466;3.610;2023-01-23T00:41:32;2.70;99.90
30097;DHT22;16915;51.466;3.610;2023-01-23T00:43:57;2.70;99.90
30097;DHT22;16915;51.466;3.610;2023-01-23T00:46:23;2.70;99.90
30097;DHT22;16915;51.466;3.610;2023-01-23T00:48:49;2.70;99.90
30097;DHT22;16915;51.466;3.610;2023-01-23T00:51:16;2.70;99.90
30097;DHT22;16915;51.466;3.610;2023-01-23T00:53:42;2.60;99.90
30097;DHT22;16915;51.466;3.610;2023-01-23T00:56:07;2.70;99.90
30097;DHT22;16915;51.466;3.610;2023-01-23T00:58:33;2.70;99.90
30097;DHT22;16915;51.466;3.610;2023-01-23T01:00:59;2.70;99.90
30097;DHT22;16915;51.466;3.610;2023-01-23T01:03:25;2.70;99.90
30097;DHT22;16915;51.466;3.610;2023-01-23T01:05:51;2.60;99.90
30097;DHT22;16915;51.466;3.610;2023-01-23T01:08:18;2.60;99.90
30097;DHT22;16915;51.466;3.610;2023-01-23T01:10:43;2.60;99.90
30097;DHT22;16915;51.466;3.610;2023-01-23T01:13:09;2.70;99.90
30097;DHT22;16915;51.466;3.610;2023-01-23T01:15:36;2.60;99.90
30097;DHT22;16915;51.466;3.610;2023-01-23T01:18:02;2.60;99.90
30097;DHT22;16915;51.466;3.610;2023-01-23T01:20:28;2.60;99.90
30097;DHT22;16915;51.466;3.610;2023-01-23T01:22:55;2.60;99.90
30097;DHT22;16915;51.466;3.610;2023-01-23T01:25:21;2.60;99.90
30097;DHT22;16915;51.466;3.610;2023-01-23T01:27:47;2.60;99.90
30097;DHT22;16915;51.466;3.610;2023-01-23T01:30:13;2.60;99.90
30097;DHT22;16915;51.466;3.610;2023-01-23T01:32:40;2.60;99.90
30097;DHT22;16915;51.466;3.610;2023-01-23T01:35:07;2.60;99.90
30097;DHT22;16915;51.466;3.610;2023-01-23T01:37:34;2.60;99.90
30097;DHT22;16915;51.466;3.610;2023-01-23T01:39:59;2.60;99.90
30097;DHT22;16915;51.466;3.610;2023-01-23T01:42:26;2.60;99.90
30097;DHT22;16915;51.466;3.610;2023-01-23T01:44:58;2.60;99.90
30097;DHT22;16915;51.466;3.610;2023-01-23T01:47:24;2.60;99.90
30097;DHT22;16915;51.466;3.610;2023-01-23T01:49:54;2.70;99.90
30097;DHT22;16915;51.466;3.610;2023-01-23T01:52:21;2.60;99.90
30097;DHT22;16915;51.466;3.610;2023-01-23T01:57:23;2.60;99.90
30097;DHT22;16915;51.466;3.610;2023-01-23T02:00:08;2.70;99.90
30097;DHT22;16915;51.466;3.610;2023-01-23T02:02:56;2.60;99.90
30097;DHT22;16915;51.466;3.610;2023-01-23T02:05:32;2.60;99.90
30097;DHT22;16915;51.466;3.610;2023-01-23T02:08:10;2.60;99.90
30097;DHT22;16915;51.466;3.610;2023-01-23T02:10:39;2.60;99.90
30097;DHT22;16915;51.466;3.610;2023-01-23T02:13:34;2.60;99.90
30097;DHT22;16915;51.466;3.610;2023-01-23T02:18:38;2.60;99.90
30097;DHT22;16915;51.466;3.610;2023-01-23T02:21:07;2.60;99.90
30097;DHT22;16915;51.466;3.610;2023-01-23T02:23:55;2.60;99.90
30097;DHT22;16915;51.466;3.610;2023-01-23T02:26:27;2.60;99.90
30097;DHT22;16915;51.466;3.610;2023-01-23T02:28:54;2.60;99.90
30097;DHT22;16915;51.466;3.610;2023-01-23T02:31:21;2.50;99.90
30097;DHT22;16915;51.466;3.610;2023-01-23T02:33:57;2.50;99.90
30097;DHT22;16915;51.466;3.610;2023-01-23T02:36:27;2.50;99.90
30097;DHT22;16915;51.466;3.610;2023-01-23T02:41:38;2.50;99.90
30097;DHT22;16915;51.466;3.610;2023-01-23T02:44:11;2.60;99.90
30097;DHT22;16915;51.466;3.610;2023-01-23T02:46:37;2.50;99.90
30097;DHT22;16915;51.466;3.610;2023-01-23T02:49:03;2.50;99.90
30097;DHT22;16915;51.466;3.610;2023-01-23T02:51:29;2.50;99.90
30097;DHT22;16915;51.466;3.610;2023-01-23T02:53:54;2.60;99.90
30097;DHT22;16915;51.466;3.610;2023-01-23T02:56:20;2.50;99.90
30097;DHT22;16915;51.466;3.610;2023-01-23T02:58:45;2.50;99.90
30097;DHT22;16915;51.466;3.610;2023-01-23T03:01:30;2.60;99.90
30097;DHT22;16915;51.466;3.610;2023-01-23T03:03:59;2.60;99.90
30097;DHT22;16915;51.466;3.610;2023-01-23T03:06:29;2.60;99.90
30097;DHT22;16915;51.466;3.610;2023-01-23T03:09:07;2.50;99.90
30097;DHT22;16915;51.466;3.610;2023-01-23T03:11:34;2.50;99.90
30097;DHT22;16915;51.466;3.610;2023-01-23T03:14:00;2.50;99.90
30097;DHT22;16915;51.466;3.610;2023-01-23T03:16:26;2.60;99.90
30097;DHT22;16915;51.466;3.610;2023-01-23T03:18:53;2.70;99.90
30097;DHT22;16915;51.466;3.610;2023-01-23T03:21:19;2.70;99.90
30097;DHT22;16915;51.466;3.610;2023-01-23T03:23:44;2.70;99.90
30097;DHT22;16915;51.466;3.610;2023-01-23T03:26:12;2.60;99.90
30097;DHT22;16915;51.466;3.610;2023-01-23T03:28:38;2.70;99.90
30097;DHT22;16915;51.466;3.610;2023-01-23T03:31:22;2.70;99.90
30097;DHT22;16915;51.466;3.610;2023-01-23T03:33:47;2.70;99.90
30097;DHT22;16915;51.466;3.610;2023-01-23T03:36:13;2.60;99.90
30097;DHT22;16915;51.466;3.610;2023-01-23T03:38:39;2.60;99.90
30097;DHT22;16915;51.466;3.610;2023-01-23T03:41:24;2.60;99.90
30097;DHT22;16915;51.466;3.610;2023-01-23T03:43:50;2.60;99.90
30097;DHT22;16915;51.466;3.610;2023-01-23T03:46:16;2.70;99.90
30097;DHT22;16915;51.466;3.610;2023-01-23T03:48:41;2.60;99.90
30097;DHT22;16915;51.466;3.610;2023-01-23T03:51:07;2.60;99.90
30097;DHT22;16915;51.466;3.610;2023-01-23T03:53:33;2.60;99.90
30097;DHT22;16915;51.466;3.610;2023-01-23T03:55:58;2.60;99.90
30097;DHT22;16915;51.466;3.610;2023-01-23T03:58:25;2.60;99.90
30097;DHT22;16915;51.466;3.610;2023-01-23T04:00:50;2.60;99.90
30097;DHT22;16915;51.466;3.610;2023-01-23T04:03:16;2.60;99.90
30097;DHT22;16915;51.466;3.610;2023-01-23T04:05:41;2.60;99.90
30097;DHT22;16915;51.466;3.610;2023-01-23T04:08:07;2.60;99.90
30097;DHT22;16915;51.466;3.610;2023-01-23T04:10:33;2.60;99.90
30097;DHT22;16915;51.466;3.610;2023-01-23T04:12:58;2.60;99.90
30097;DHT22;16915;51.466;3.610;2023-01-23T04:15:24;2.60;99.90
30097;DHT22;16915;51.466;3.610;2023-01-23T04:17:49;2.60;99.90
30097;DHT22;16915;51.466;3.610;2023-01-23T04:20:15;2.60;99.90
30097;DHT22;16915;51.466;3.610;2023-01-23T04:22:41;2.60;99.90
30097;DHT22;16915;51.466;3.610;2023-01-23T04:25:06;2.60;99.90
30097;DHT22;16915;51.466;3.610;2023-01-23T04:27:32;2.60;99.90
30097;DHT22;16915;51.466;3.610;2023-01-23T04:29:58;2.60;99.90
30097;DHT22;16915;51.466;3.610;2023-01-23T04:32:24;2.60;99.90
30097;DHT22;16915;51.466;3.610;2023-01-23T04:34:50;2.60;99.90
30097;DHT22;16915;51.466;3.610;2023-01-23T04:37:16;2.60;99.90
30097;DHT22;16915;51.466;3.610;2023-01-23T04:39:42;2.60;99.90
30097;DHT22;16915;51.466;3.610;2023-01-23T04:42:08;2.50;99.90
30097;DHT22;16915;51.466;3.610;2023-01-23T04:44:33;2.50;99.90
30097;DHT22;16915;51.466;3.610;2023-01-23T04:46:59;2.60;99.90
30097;DHT22;16915;51.466;3.610;2023-01-23T04:49:25;2.60;99.90
30097;DHT22;16915;51.466;3.610;2023-01-23T04:51:51;2.60;99.90
30097;DHT22;16915;51.466;3.610;2023-01-23T04:54:18;2.60;99.90
30097;DHT22;16915;51.466;3.610;2023-01-23T04:56:44;2.60;99.90
30097;DHT22;16915;51.466;3.610;2023-01-23T04:59:10;2.60;99.90
30097;DHT22;16915;51.466;3.610;2023-01-23T05:01:36;2.60;99.90
30097;DHT22;16915;51.466;3.610;2023-01-23T05:04:02;2.60;99.90
30097;DHT22;16915;51.466;3.610;2023-01-23T05:06:28;2.60;99.90
30097;DHT22;16915;51.466;3.610;2023-01-23T05:08:54;2.60;99.90
30097;DHT22;16915;51.466;3.610;2023-01-23T05:11:19;2.60;99.90
30097;DHT22;16915;51.466;3.610;2023-01-23T05:13:45;2.60;99.90
30097;DHT22;16915;51.466;3.610;2023-01-23T05:16:11;2.70;99.90
30097;DHT22;16915;51.466;3.610;2023-01-23T05:18:36;2.60;99.90
30097;DHT22;16915;51.466;3.610;2023-01-23T05:21:02;2.60;99.90
30097;DHT22;16915;51.466;3.610;2023-01-23T05:23:28;2.70;99.90
30097;DHT22;16915;51.466;3.610;2023-01-23T05:25:53;2.70;99.90
30097;DHT22;16915;51.466;3.610;2023-01-23T05:28:19;2.70;99.90
30097;DHT22;16915;51.466;3.610;2023-01-23T05:30:44;2.70;99.90
30097;DHT22;16915;51.466;3.610;2023-01-23T05:33:10;2.70;99.90
30097;DHT22;16915;51.466;3.610;2023-01-23T05:35:37;2.70;99.90
30097;DHT22;16915;51.466;3.610;2023-01-23T05:38:03;2.70;99.90
30097;DHT22;16915;51.466;3.610;2023-01-23T05:40:29;2.60;99.90
30097;DHT22;16915;51.466;3.610;2023-01-23T05:42:54;2.70;99.90
30097;DHT22;16915;51.466;3.610;2023-01-23T05:45:20;2.60;99.90
30097;DHT22;16915;51.466;3.610;2023-01-23T05:47:46;2.60;99.90
30097;DHT22;16915;51.466;3.610;2023-01-23T05:50:14;2.60;99.90
30097;DHT22;16915;51.466;3.610;2023-01-23T05:52:40;2.60;99.90
30097;DHT22;16915;51.466;3.610;2023-01-23T05:55:06;2.60;99.90
30097;DHT22;16915;51.466;3.610;2023-01-23T05:57:33;2.60;99.90
30097;DHT22;16915;51.466;3.610;2023-01-23T05:59:59;2.60;99.90
30097;DHT22;16915;51.466;3.610;2023-01-23T06:02:25;2.60;99.90
30097;DHT22;16915;51.466;3.610;2023-01-23T06:04:51;2.60;99.90
30097;DHT22;16915;51.466;3.610;2023-01-23T06:07:17;2.60;99.90
30097;DHT22;16915;51.466;3.610;2023-01-23T06:09:44;2.60;99.90
30097;DHT22;16915;51.466;3.610;2023-01-23T06:12:10;2.60;99.90
30097;DHT22;16915;51.466;3.610;2023-01-23T06:14:35;2.60;99.90
30097;DHT22;16915;51.466;3.610;2023-01-23T06:17:01;2.50;99.90
30097;DHT22;16915;51.466;3.610;2023-01-23T06:19:27;2.50;99.90
30097;DHT22;16915;51.466;3.610;2023-01-23T06:21:52;2.50;99.90
30097;DHT22;16915;51.466;3.610;2023-01-23T06:24:18;2.50;99.90
30097;DHT22;16915;51.466;3.610;2023-01-23T06:26:44;2.50;99.90
30097;DHT22;16915;51.466;3.610;2023-01-23T06:29:09;2.50;99.90
30097;DHT22;16915;51.466;3.610;2023-01-23T06:31:35;2.50;99.90
30097;DHT22;16915;51.466;3.610;2023-01-23T06:34:00;2.50;99.90
30097;DHT22;16915;51.466;3.610;2023-01-23T06:36:26;2.50;99.90
30097;DHT22;16915;51.466;3.610;2023-01-23T06:38:52;2.50;99.90
30097;DHT22;16915;51.466;3.610;2023-01-23T06:41:18;2.50;99.90
30097;DHT22;16915;51.466;3.610;2023-01-23T06:43:43;2.50;99.90
30097;DHT22;16915;51.466;3.610;2023-01-23T06:46:10;2.60;99.90
30097;DHT22;16915;51.466;3.610;2023-01-23T06:48:36;2.50;99.90
30097;DHT22;16915;51.466;3.610;2023-01-23T06:51:03;2.60;99.90
30097;DHT22;16915;51.466;3.610;2023-01-23T06:53:29;2.50;99.90
30097;DHT22;16915;51.466;3.610;2023-01-23T06:56:02;2.50;99.90
30097;DHT22;16915;51.466;3.610;2023-01-23T06:58:29;2.50;99.90
30097;DHT22;16915;51.466;3.610;2023-01-23T07:00:55;2.50;99.90
30097;DHT22;16915;51.466;3.610;2023-01-23T07:03:21;2.50;99.90
30097;DHT22;16915;51.466;3.610;2023-01-23T07:05:46;2.50;99.90
30097;DHT22;16915;51.466;3.610;2023-01-23T07:08:12;2.50;99.90
30097;DHT22;16915;51.466;3.610;2023-01-23T07:10:38;2.50;99.90
30097;DHT22;16915;51.466;3.610;2023-01-23T07:13:05;2.50;99.90
30097;DHT22;16915;51.466;3.610;2023-01-23T07:15:32;2.50;99.90
30097;DHT22;16915;51.466;3.610;2023-01-23T07:17:58;2.50;99.90
30097;DHT22;16915;51.466;3.610;2023-01-23T07:20:24;2.50;99.90
30097;DHT22;16915;51.466;3.610;2023-01-23T07:22:55;2.50;99.90
30097;DHT22;16915;51.466;3.610;2023-01-23T07:25:22;2.50;99.90
30097;DHT22;16915;51.466;3.610;2023-01-23T07:27:47;2.50;99.90
30097;DHT22;16915;51.466;3.610;2023-01-23T07:30:13;2.60;99.90
30097;DHT22;16915;51.466;3.610;2023-01-23T07:32:39;2.60;99.90
30097;DHT22;16915;51.466;3.610;2023-01-23T07:35:06;2.60;99.90
30097;DHT22;16915;51.466;3.610;2023-01-23T07:37:32;2.60;99.90
30097;DHT22;16915;51.466;3.610;2023-01-23T07:39:57;2.60;99.90
30097;DHT22;16915;51.466;3.610;2023-01-23T07:42:23;2.60;99.90
30097;DHT22;16915;51.466;3.610;2023-01-23T07:44:49;2.60;99.90
30097;DHT22;16915;51.466;3.610;2023-01-23T07:47:14;2.60;99.90
30097;DHT22;16915;51.466;3.610;2023-01-23T07:49:41;2.60;99.90
30097;DHT22;16915;51.466;3.610;2023-01-23T07:52:06;2.60;99.90
30097;DHT22;16915;51.466;3.610;2023-01-23T07:54:32;2.70;99.90
30097;DHT22;16915;51.466;3.610;2023-01-23T07:56:58;2.60;99.90
30097;DHT22;16915;51.466;3.610;2023-01-23T07:59:23;2.70;99.90
30097;DHT22;16915;51.466;3.610;2023-01-23T08:01:49;2.60;99.90
30097;DHT22;16915;51.466;3.610;2023-01-23T08:04:17;2.60;99.90
30097;DHT22;16915;51.466;3.610;2023-01-23T08:06:43;2.60;99.90
30097;DHT22;16915;51.466;3.610;2023-01-23T08:09:08;2.70;99.90
30097;DHT22;16915;51.466;3.610;2023-01-23T08:11:34;2.70;99.90
30097;DHT22;16915;51.466;3.610;2023-01-23T08:13:59;2.70;99.90
30097;DHT22;16915;51.466;3.610;2023-01-23T08:16:25;2.70;99.90
30097;DHT22;16915;51.466;3.610;2023-01-23T08:18:51;2.70;99.90
30097;DHT22;16915;51.466;3.610;2023-01-23T08:21:16;2.70;99.90
30097;DHT22;16915;51.466;3.610;2023-01-23T08:23:42;2.70;99.90
30097;DHT22;16915;51.466;3.610;2023-01-23T08:26:09;2.70;99.90
30097;DHT22;16915;51.466;3.610;2023-01-23T08:28:35;2.70;99.90
30097;DHT22;16915;51.466;3.610;2023-01-23T08:31:03;2.70;99.90
30097;DHT22;16915;51.466;3.610;2023-01-23T08:33:29;2.70;99.90
30097;DHT22;16915;51.466;3.610;2023-01-23T08:35:56;2.70;99.90
30097;DHT22;16915;51.466;3.610;2023-01-23T08:38:23;2.70;99.90
30097;DHT22;16915;51.466;3.610;2023-01-23T08:40:50;2.80;99.90
30097;DHT22;16915;51.466;3.610;2023-01-23T08:43:17;2.80;99.90
30097;DHT22;16915;51.466;3.610;2023-01-23T08:45:48;2.80;99.90
30097;DHT22;16915;51.466;3.610;2023-01-23T08:48:14;2.80;99.90
30097;DHT22;16915;51.466;3.610;2023-01-23T08:50:40;2.80;99.90
30097;DHT22;16915;51.466;3.610;2023-01-23T08:53:05;2.90;99.90
30097;DHT22;16915;51.466;3.610;2023-01-23T08:55:31;2.80;99.90
30097;DHT22;16915;51.466;3.610;2023-01-23T08:57:57;2.90;99.90
30097;DHT22;16915;51.466;3.610;2023-01-23T09:00:24;2.90;99.90
30097;DHT22;16915;51.466;3.610;2023-01-23T09:02:49;2.90;99.90
30097;DHT22;16915;51.466;3.610;2023-01-23T09:05:16;3.00;99.90
30097;DHT22;16915;51.466;3.610;2023-01-23T09:07:42;3.00;99.90
30097;DHT22;16915;51.466;3.610;2023-01-23T09:10:08;3.00;99.90
30097;DHT22;16915;51.466;3.610;2023-01-23T09:12:34;3.00;99.90
30097;DHT22;16915;51.466;3.610;2023-01-23T09:15:00;3.10;99.90
30097;DHT22;16915;51.466;3.610;2023-01-23T09:17:26;3.10;99.90
30097;DHT22;16915;51.466;3.610;2023-01-23T09:19:52;3.20;99.90
30097;DHT22;16915;51.466;3.610;2023-01-23T09:22:18;3.20;99.90
30097;DHT22;16915;51.466;3.610;2023-01-23T09:24:44;3.30;99.90
30097;DHT22;16915;51.466;3.610;2023-01-23T09:27:10;3.20;99.90
30097;DHT22;16915;51.466;3.610;2023-01-23T09:29:35;3.20;99.90
30097;DHT22;16915;51.466;3.610;2023-01-23T09:32:02;3.20;99.90
30097;DHT22;16915;51.466;3.610;2023-01-23T09:34:28;3.30;99.90
30097;DHT22;16915;51.466;3.610;2023-01-23T09:36:53;3.40;99.90
30097;DHT22;16915;51.466;3.610;2023-01-23T09:39:19;3.30;99.90
30097;DHT22;16915;51.466;3.610;2023-01-23T09:41:45;3.40;99.90
30097;DHT22;16915;51.466;3.610;2023-01-23T09:44:33;3.50;99.90
30097;DHT22;16915;51.466;3.610;2023-01-23T09:47:10;3.50;99.90
30097;DHT22;16915;51.466;3.610;2023-01-23T09:49:52;3.50;99.90
30097;DHT22;16915;51.466;3.610;2023-01-23T09:52:25;3.50;99.90
30097;DHT22;16915;51.466;3.610;2023-01-23T09:55:16;3.60;99.90
30097;DHT22;16915;51.466;3.610;2023-01-23T09:57:48;3.60;99.90
30097;DHT22;16915;51.466;3.610;2023-01-23T10:00:28;3.60;99.90
30097;DHT22;16915;51.466;3.610;2023-01-23T10:02:59;3.70;99.90
30097;DHT22;16915;51.466;3.610;2023-01-23T10:27:21;4.00;99.90
30097;DHT22;16915;51.466;3.610;2023-01-23T10:30:04;3.90;99.90
30097;DHT22;16915;51.466;3.610;2023-01-23T10:32:31;3.90;99.90
30097;DHT22;16915;51.466;3.610;2023-01-23T10:35:11;4.00;99.90
30097;DHT22;16915;51.466;3.610;2023-01-23T10:37:59;4.00;99.90
30097;DHT22;16915;51.466;3.610;2023-01-23T10:40:26;4.10;99.90
30097;DHT22;16915;51.466;3.610;2023-01-23T10:43:15;4.20;99.90
30097;DHT22;16915;51.466;3.610;2023-01-23T10:45:43;4.20;99.90
30097;DHT22;16915;51.466;3.610;2023-01-23T10:50:56;4.30;99.90
30097;DHT22;16915;51.466;3.610;2023-01-23T10:53:24;4.30;99.90
30097;DHT22;16915;51.466;3.610;2023-01-23T10:55:51;4.30;99.90
30097;DHT22;16915;51.466;3.610;2023-01-23T11:00:52;4.40;99.90
30097;DHT22;16915;51.466;3.610;2023-01-23T11:08:39;4.50;99.90
30097;DHT22;16915;51.466;3.610;2023-01-23T11:11:26;4.40;99.90
30097;DHT22;16915;51.466;3.610;2023-01-23T11:14:12;4.50;99.90
30097;DHT22;16915;51.466;3.610;2023-01-23T11:16:41;4.60;99.90
30097;DHT22;16915;51.466;3.610;2023-01-23T11:24:20;4.70;99.90
30097;DHT22;16915;51.466;3.610;2023-01-23T11:26:46;4.80;99.90
30097;DHT22;16915;51.466;3.610;2023-01-23T11:29:20;4.70;99.90
30097;DHT22;16915;51.466;3.610;2023-01-23T11:31:53;4.70;99.90
30097;DHT22;16915;51.466;3.610;2023-01-23T11:34:24;4.70;99.90
30097;DHT22;16915;51.466;3.610;2023-01-23T11:39:37;4.90;99.90
30097;DHT22;16915;51.466;3.610;2023-01-23T11:42:04;5.00;99.90
30097;DHT22;16915;51.466;3.610;2023-01-23T11:44:31;5.10;99.90
30097;DHT22;16915;51.466;3.610;2023-01-23T11:50:38;5.20;99.90
30097;DHT22;16915;51.466;3.610;2023-01-23T11:53:27;5.20;99.90
30097;DHT22;16915;51.466;3.610;2023-01-23T11:56:33;5.40;99.90
30097;DHT22;16915;51.466;3.610;2023-01-23T11:59:13;5.40;99.90
30097;DHT22;16915;51.466;3.610;2023-01-23T12:04:34;5.60;99.90
30097;DHT22;16915;51.466;3.610;2023-01-23T12:07:16;5.60;99.90
30097;DHT22;16915;51.466;3.610;2023-01-23T12:26:20;5.40;99.90
30097;DHT22;16915;51.466;3.610;2023-01-23T12:31:39;5.40;99.90
30097;DHT22;16915;51.466;3.610;2023-01-23T12:37:27;5.30;99.90
30097;DHT22;16915;51.466;3.610;2023-01-23T12:40:15;5.20;99.90
30097;DHT22;16915;51.466;3.610;2023-01-23T12:43:15;5.30;99.90
30097;DHT22;16915;51.466;3.610;2023-01-23T12:45:55;5.30;99.90
30097;DHT22;16915;51.466;3.610;2023-01-23T12:48:41;5.40;99.90
30097;DHT22;16915;51.466;3.610;2023-01-23T12:51:35;5.40;99.90
30097;DHT22;16915;51.466;3.610;2023-01-23T12:54:05;5.40;99.90
30097;DHT22;16915;51.466;3.610;2023-01-23T12:56:33;5.40;99.90
30097;DHT22;16915;51.466;3.610;2023-01-23T13:05:05;5.40;99.90
30097;DHT22;16915;51.466;3.610;2023-01-23T13:07:39;5.40;99.90
30097;DHT22;16915;51.466;3.610;2023-01-23T13:13:19;5.40;99.90
30097;DHT22;16915;51.466;3.610;2023-01-23T13:16:13;5.30;99.90
30097;DHT22;16915;51.466;3.610;2023-01-23T13:18:39;5.30;99.90
30097;DHT22;16915;51.466;3.610;2023-01-23T13:21:34;5.40;99.90
30097;DHT22;16915;51.466;3.610;2023-01-23T13:24:42;5.40;99.90
30097;DHT22;16915;51.466;3.610;2023-01-23T13:29:59;5.50;99.90
30097;DHT22;16915;51.466;3.610;2023-01-23T13:32:30;5.50;99.90
30097;DHT22;16915;51.466;3.610;2023-01-23T13:34:56;5.50;99.90
30097;DHT22;16915;51.466;3.610;2023-01-23T13:40:15;5.50;99.90
30097;DHT22;16915;51.466;3.610;2023-01-23T13:42:41;5.40;99.90
30097;DHT22;16915;51.466;3.610;2023-01-23T13:45:33;5.20;99.90
30097;DHT22;16915;51.466;3.610;2023-01-23T13:49:21;5.10;99.90
30097;DHT22;16915;51.466;3.610;2023-01-23T13:51:32;5.10;99.90
30097;DHT22;16915;51.466;3.610;2023-01-23T13:53:58;5.00;99.90
30097;DHT22;16915;51.466;3.610;2023-01-23T13:56:43;5.00;99.90
30097;DHT22;16915;51.466;3.610;2023-01-23T13:59:27;4.90;99.90
30097;DHT22;16915;51.466;3.610;2023-01-23T14:05:12;5.00;99.90
30097;DHT22;16915;51.466;3.610;2023-01-23T14:07:42;5.00;99.90
30097;DHT22;16915;51.466;3.610;2023-01-23T14:12:48;5.00;99.90
30097;DHT22;16915;51.466;3.610;2023-01-23T14:15:21;5.10;99.90
30097;DHT22;16915;51.466;3.610;2023-01-23T14:18:22;5.10;99.90
30097;DHT22;16915;51.466;3.610;2023-01-23T14:20:49;5.00;99.90
30097;DHT22;16915;51.466;3.610;2023-01-23T14:23:27;5.00;99.90
30097;DHT22;16915;51.466;3.610;2023-01-23T14:25:55;5.00;99.90
30097;DHT22;16915;51.466;3.610;2023-01-23T14:28:21;5.00;99.90
30097;DHT22;16915;51.466;3.610;2023-01-23T14:30:55;4.90;99.90
30097;DHT22;16915;51.466;3.610;2023-01-23T14:33:21;4.80;99.90
30097;DHT22;16915;51.466;3.610;2023-01-23T14:35:47;4.70;99.90
30097;DHT22;16915;51.466;3.610;2023-01-23T14:38:29;4.60;99.90
30097;DHT22;16915;51.466;3.610;2023-01-23T14:40:56;4.60;99.90
30097;DHT22;16915;51.466;3.610;2023-01-23T14:43:24;4.70;99.90
30097;DHT22;16915;51.466;3.610;2023-01-23T14:48:26;4.70;99.90
30097;DHT22;16915;51.466;3.610;2023-01-23T14:51:04;4.70;99.90
30097;DHT22;16915;51.466;3.610;2023-01-23T14:53:30;4.70;99.90
30097;DHT22;16915;51.466;3.610;2023-01-23T14:55:57;4.70;99.90
30097;DHT22;16915;51.466;3.610;2023-01-23T14:58:25;4.60;99.90
30097;DHT22;16915;51.466;3.610;2023-01-23T15:00:52;4.60;99.90
30097;DHT22;16915;51.466;3.610;2023-01-23T15:03:35;4.60;99.90
30097;DHT22;16915;51.466;3.610;2023-01-23T15:06:06;4.60;99.90
30097;DHT22;16915;51.466;3.610;2023-01-23T15:08:34;4.60;99.90
30097;DHT22;16915;51.466;3.610;2023-01-23T15:11:01;4.60;99.90
30097;DHT22;16915;51.466;3.610;2023-01-23T15:13:45;4.50;99.90
30097;DHT22;16915;51.466;3.610;2023-01-23T15:16:15;4.50;99.90
30097;DHT22;16915;51.466;3.610;2023-01-23T15:18:57;4.50;99.90
30097;DHT22;16915;51.466;3.610;2023-01-23T15:21:36;4.40;99.90
30097;DHT22;16915;51.466;3.610;2023-01-23T15:26:35;4.30;99.90
30097;DHT22;16915;51.466;3.610;2023-01-23T15:36:57;4.20;99.90
30097;DHT22;16915;51.466;3.610;2023-01-23T15:44:38;4.20;99.90
30097;DHT22;16915;51.466;3.610;2023-01-23T15:47:04;4.20;99.90
30097;DHT22;16915;51.466;3.610;2023-01-23T15:49:34;4.20;99.90
30097;DHT22;16915;51.466;3.610;2023-01-23T15:52:17;4.20;99.90
30097;DHT22;16915;51.466;3.610;2023-01-23T15:54:44;4.20;99.90
30097;DHT22;16915;51.466;3.610;2023-01-23T15:57:12;4.20;99.90
30097;DHT22;16915;51.466;3.610;2023-01-23T15:59:37;4.10;99.90
30097;DHT22;16915;51.466;3.610;2023-01-23T16:02:09;4.20;99.90
30097;DHT22;16915;51.466;3.610;2023-01-23T16:04:38;4.20;99.90
30097;DHT22;16915;51.466;3.610;2023-01-23T16:07:06;4.10;99.90
30097;DHT22;16915;51.466;3.610;2023-01-23T16:09:34;4.10;99.90
30097;DHT22;16915;51.466;3.610;2023-01-23T16:12:00;4.10;99.90
30097;DHT22;16915;51.466;3.610;2023-01-23T16:14:26;4.10;99.90
30097;DHT22;16915;51.466;3.610;2023-01-23T16:16:52;4.10;99.90
30097;DHT22;16915;51.466;3.610;2023-01-23T16:19:18;4.10;99.90
30097;DHT22;16915;51.466;3.610;2023-01-23T16:21:44;4.00;99.90
30097;DHT22;16915;51.466;3.610;2023-01-23T16:24:18;4.00;99.90
30097;DHT22;16915;51.466;3.610;2023-01-23T16:26:45;4.00;99.90
30097;DHT22;16915;51.466;3.610;2023-01-23T16:29:27;4.00;99.90
30097;DHT22;16915;51.466;3.610;2023-01-23T16:31:53;3.90;99.90
30097;DHT22;16915;51.466;3.610;2023-01-23T16:34:19;4.00;99.90
30097;DHT22;16915;51.466;3.610;2023-01-23T16:36:48;4.00;99.90
30097;DHT22;16915;51.466;3.610;2023-01-23T16:39:16;4.00;99.90
30097;DHT22;16915;51.466;3.610;2023-01-23T16:41:43;4.00;99.90
30097;DHT22;16915;51.466;3.610;2023-01-23T16:44:17;4.00;99.90
30097;DHT22;16915;51.466;3.610;2023-01-23T16:46:48;4.00;99.90
30097;DHT22;16915;51.466;3.610;2023-01-23T16:49:14;3.90;99.90
30097;DHT22;16915;51.466;3.610;2023-01-23T16:51:43;3.90;99.90
30097;DHT22;16915;51.466;3.610;2023-01-23T16:54:19;3.90;99.90
30097;DHT22;16915;51.466;3.610;2023-01-23T16:56:46;3.80;99.90
30097;DHT22;16915;51.466;3.610;2023-01-23T16:59:35;3.60;99.90
30097;DHT22;16915;51.466;3.610;2023-01-23T17:02:25;3.40;99.90
30097;DHT22;16915;51.466;3.610;2023-01-23T17:04:51;3.30;99.90
30097;DHT22;16915;51.466;3.610;2023-01-23T17:07:18;3.20;99.90
30097;DHT22;16915;51.466;3.610;2023-01-23T17:09:44;3.00;99.90
30097;DHT22;16915;51.466;3.610;2023-01-23T17:12:14;3.00;99.90
30097;DHT22;16915;51.466;3.610;2023-01-23T17:14:41;2.80;99.90
30097;DHT22;16915;51.466;3.610;2023-01-23T17:17:13;2.70;99.90
30097;DHT22;16915;51.466;3.610;2023-01-23T17:19:40;2.60;99.90
30097;DHT22;16915;51.466;3.610;2023-01-23T17:22:18;2.50;99.90
30097;DHT22;16915;51.466;3.610;2023-01-23T17:24:45;2.40;99.90
30097;DHT22;16915;51.466;3.610;2023-01-23T17:27:11;2.30;99.90
30097;DHT22;16915;51.466;3.610;2023-01-23T17:29:36;2.30;99.90
30097;DHT22;16915;51.466;3.610;2023-01-23T17:32:02;2.20;99.90
30097;DHT22;16915;51.466;3.610;2023-01-23T17:34:33;2.10;99.90
30097;DHT22;16915;51.466;3.610;2023-01-23T17:37:00;2.10;99.90
30097;DHT22;16915;51.466;3.610;2023-01-23T17:39:26;2.00;99.90
30097;DHT22;16915;51.466;3.610;2023-01-23T17:41:52;1.90;99.90
30097;DHT22;16915;51.466;3.610;2023-01-23T17:44:18;1.90;99.90
30097;DHT22;16915;51.466;3.610;2023-01-23T17:46:43;1.80;99.90
30097;DHT22;16915;51.466;3.610;2023-01-23T17:49:26;1.70;99.90
30097;DHT22;16915;51.466;3.610;2023-01-23T17:51:53;1.70;99.90
30097;DHT22;16915;51.466;3.610;2023-01-23T17:54:20;1.80;99.90
30097;DHT22;16915;51.466;3.610;2023-01-23T17:56:45;1.90;99.90